Time;durP1;ratioP1;P1;durP2;ratioP2;P2;SDS_P1;SDS_P2;PMS_P1;PMS_P2;Temp;Humidity;BMP_temperature;BMP_pressure;BME280_temperature;BME280_humidity;BME280_pressure;Samples;Min_cycle;Max_cycle;Signal;HPM_P1;HPM_P2
2021/05/30 00:04:27;;;;;;;2.50;2.30;;;;;;;13.96;100.00;94736.81;10441630;28;20028;-77
2021/05/30 00:09:28;;;;;;;3.10;2.20;;;;;;;14.03;100.00;94731.03;10442435;28;20025;-76
2021/05/30 00:14:28;;;;;;;4.00;2.53;;;;;;;13.92;100.00;94729.59;10442236;28;20391;-76
2021/05/30 00:19:29;;;;;;;2.47;1.90;;;;;;;13.81;100.00;94724.38;10442007;28;20305;-76
2021/05/30 00:24:29;;;;;;;3.38;2.47;;;;;;;13.84;100.00;94723.78;10440909;28;20480;-76
2021/05/30 00:29:29;;;;;;;1.73;1.60;;;;;;;13.81;100.00;94723.56;10442263;28;20086;-77
2021/05/30 00:34:30;;;;;;;3.43;1.80;;;;;;;13.68;100.00;94722.41;10441235;28;20029;-77
2021/05/30 00:39:30;;;;;;;3.77;2.00;;;;;;;13.60;100.00;94721.16;10408216;28;20299;-77
2021/05/30 00:44:32;;;;;;;6.15;2.03;;;;;;;13.73;100.00;94726.91;10407533;28;20072;-76
2021/05/30 00:49:32;;;;;;;2.70;1.80;;;;;;;13.60;100.00;94725.75;10407777;28;20037;-76
2021/05/30 00:54:36;;;;;;;4.18;1.65;;;;;;;13.53;100.00;94728.03;10406738;28;20028;-77
2021/05/30 00:59:37;;;;;;;1.83;1.60;;;;;;;13.41;100.00;94740.06;10407840;28;20036;-77
2021/05/30 01:04:38;;;;;;;4.03;1.67;;;;;;;13.49;100.00;94738.59;10410608;28;20033;-77
2021/05/30 01:09:38;;;;;;;2.03;1.80;;;;;;;13.44;100.00;94731.38;10447825;28;20465;-77
2021/05/30 01:14:40;;;;;;;2.93;2.03;;;;;;;13.37;100.00;94733.63;10447729;28;20028;-77
2021/05/30 01:19:42;;;;;;;6.13;1.40;;;;;;;13.39;100.00;94734.13;10447905;28;20415;-77
2021/05/30 01:24:43;;;;;;;5.80;2.13;;;;;;;13.28;100.00;94727.22;10447054;28;20452;-77
2021/05/30 01:29:43;;;;;;;2.83;2.00;;;;;;;13.24;100.00;94735.13;10445726;28;20025;-76
2021/05/30 01:34:44;;;;;;;6.33;1.73;;;;;;;13.26;100.00;94732.94;10446822;28;20318;-77
2021/05/30 01:39:44;;;;;;;1.92;1.45;;;;;;;13.21;100.00;94732.19;10446381;28;20032;-77
2021/05/30 01:44:44;;;;;;;2.40;1.80;;;;;;;13.31;100.00;94729.34;10446540;28;20083;-77
2021/05/30 01:49:45;;;;;;;2.13;1.50;;;;;;;13.28;100.00;94725.34;10446288;28;20271;-77
2021/05/30 01:54:49;;;;;;;1.93;1.50;;;;;;;13.37;100.00;94730.13;10445764;28;20036;-77
2021/05/30 01:59:50;;;;;;;2.17;1.30;;;;;;;13.32;100.00;94736.38;10446763;28;20452;-77
2021/05/30 02:04:53;;;;;;;3.08;1.70;;;;;;;13.21;100.00;94741.06;10445125;28;20021;-76
2021/05/30 02:09:54;;;;;;;4.18;2.03;;;;;;;13.22;100.00;94734.59;10446029;28;20025;-77
2021/05/30 02:14:56;;;;;;;3.00;2.17;;;;;;;13.13;100.00;94736.31;10445768;28;20029;-76
2021/05/30 02:19:57;;;;;;;3.45;1.80;;;;;;;13.20;100.00;94730.56;10444145;28;20033;-76
2021/05/30 02:24:58;;;;;;;3.83;1.88;;;;;;;13.16;100.00;94733.06;10445402;28;20578;-76
2021/05/30 02:29:58;;;;;;;2.25;1.90;;;;;;;13.13;100.00;94730.94;10444392;28;20021;-76
2021/05/30 02:34:59;;;;;;;4.67;1.97;;;;;;;13.09;100.00;94730.72;10444439;28;20031;-76
2021/05/30 02:39:59;;;;;;;5.17;2.00;;;;;;;13.06;100.00;94731.31;10444853;28;20029;-77
2021/05/30 02:45:00;;;;;;;23.57;3.47;;;;;;;13.08;100.00;94729.09;10445766;28;20283;-77
2021/05/30 02:50:00;;;;;;;4.43;1.92;;;;;;;12.97;100.00;94739.22;10445586;28;20326;-78
2021/05/30 02:55:01;;;;;;;4.93;1.90;;;;;;;13.06;100.00;94738.56;10441498;28;20506;-77
2021/05/30 03:00:03;;;;;;;2.60;1.73;;;;;;;13.15;100.00;94745.75;10442724;28;20451;-77
2021/05/30 03:05:06;;;;;;;8.25;3.97;;;;;;;13.24;100.00;94734.31;10408880;28;20272;-78
2021/05/30 03:10:07;;;;;;;5.68;1.75;;;;;;;13.18;100.00;94732.78;10402627;28;20033;-78
2021/05/30 03:15:07;;;;;;;3.08;2.30;;;;;;;13.14;100.00;94736.06;10402027;28;20025;-78
2021/05/30 03:20:08;;;;;;;6.15;1.83;;;;;;;13.00;100.00;94735.13;10402079;28;20061;-78
2021/05/30 03:25:10;;;;;;;3.75;2.13;;;;;;;12.94;100.00;94733.59;10402941;28;20049;-78
2021/05/30 03:30:11;;;;;;;4.53;2.45;;;;;;;13.12;100.00;94746.31;10403230;28;20775;-77
2021/05/30 03:35:11;;;;;;;2.95;2.30;;;;;;;13.11;100.00;94735.81;10402645;28;20491;-78
2021/05/30 03:45:28;;;;;;;5.47;2.50;;;;;;;13.31;100.00;94732.03;10411244;28;20104;-72
2021/05/30 03:50:28;;;;;;;5.10;2.00;;;;;;;13.31;100.00;94732.88;10441304;28;20025;-72
2021/05/30 03:55:29;;;;;;;1.90;1.70;;;;;;;13.43;100.00;94737.06;10409012;28;20683;-72
2021/05/30 04:00:29;;;;;;;5.80;1.80;;;;;;;13.50;100.00;94726.69;10399186;28;20021;-72
2021/05/30 04:05:29;;;;;;;4.43;2.57;;;;;;;13.70;100.00;94728.28;10405284;28;20727;-72
2021/05/30 04:10:30;;;;;;;7.70;2.17;;;;;;;13.75;100.00;94730.94;10419770;28;20810;-72
2021/05/30 04:15:30;;;;;;;3.33;2.42;;;;;;;13.82;100.00;94736.75;10433435;28;20546;-73
2021/05/30 04:20:31;;;;;;;5.32;2.25;;;;;;;14.00;100.00;94734.34;10448621;28;20017;-73
2021/05/30 04:25:31;;;;;;;4.57;2.27;;;;;;;14.22;100.00;94731.00;10448056;28;20486;-73
2021/05/30 04:30:32;;;;;;;3.45;2.50;;;;;;;14.42;100.00;94751.47;10447605;28;20405;-73
2021/05/30 04:35:32;;;;;;;2.97;1.87;;;;;;;14.58;100.00;94745.81;10447292;28;20020;-73
2021/05/30 04:40:32;;;;;;;2.20;1.93;;;;;;;14.63;99.20;94741.13;10447287;28;20348;-73
2021/05/30 04:45:33;;;;;;;2.92;2.20;;;;;;;14.75;100.00;94745.25;10446633;28;20032;-73
2021/05/30 04:50:33;;;;;;;4.50;2.27;;;;;;;14.66;98.76;94737.03;10447995;28;20021;-73
2021/05/30 04:55:34;;;;;;;5.72;2.15;;;;;;;14.86;98.11;94733.94;10447847;28;20302;-74
2021/05/30 05:00:34;;;;;;;10.60;2.10;;;;;;;15.05;98.33;94735.75;10405305;28;20033;-74
2021/05/30 05:05:35;;;;;;;6.20;2.55;;;;;;;15.35;100.00;94736.25;10406284;28;20067;-74
2021/05/30 05:10:35;;;;;;;2.00;1.67;;;;;;;15.45;92.77;94741.44;10434079;28;20025;-79
2021/05/30 05:15:36;;;;;;;10.93;2.50;;;;;;;15.75;87.72;94741.84;10443056;28;20037;-78
2021/05/30 05:20:36;;;;;;;4.45;2.22;;;;;;;15.62;90.00;94742.69;10424145;28;20036;-78
2021/05/30 05:25:36;;;;;;;4.93;1.80;;;;;;;15.59;91.41;94746.03;10410410;28;20049;-78
2021/05/30 05:30:37;;;;;;;6.67;2.97;;;;;;;15.68;94.10;94745.00;10422662;28;20025;-77
2021/05/30 05:35:39;;;;;;;6.28;2.50;;;;;;;15.64;93.09;94743.19;10404201;28;20071;-77
2021/05/30 05:40:39;;;;;;;4.93;2.40;;;;;;;15.54;96.24;94749.63;10404727;28;20036;-77
2021/05/30 05:45:40;;;;;;;4.07;2.58;;;;;;;15.61;93.96;94749.22;10404124;28;20026;-77
2021/05/30 05:50:41;;;;;;;8.15;2.53;;;;;;;15.47;93.96;94751.94;10404663;28;20028;-78
2021/05/30 05:55:42;;;;;;;4.88;2.47;;;;;;;15.51;96.20;94756.44;10405382;28;20112;-77
2021/05/30 06:00:42;;;;;;;5.68;3.08;;;;;;;15.62;91.15;94758.97;10404672;28;20044;-77
2021/05/30 06:05:42;;;;;;;3.63;2.60;;;;;;;15.88;92.64;94751.88;10423626;28;20472;-76
2021/05/30 06:10:43;;;;;;;4.13;2.27;;;;;;;16.09;92.08;94754.13;10426349;28;20476;-77
2021/05/30 06:15:44;;;;;;;3.87;2.80;;;;;;;16.14;81.90;94745.84;10408353;28;20856;-76
2021/05/30 06:20:46;;;;;;;5.13;2.75;;;;;;;16.37;80.78;94748.59;10417131;28;20025;-77
2021/05/30 06:25:47;;;;;;;4.35;2.15;;;;;;;16.42;80.27;94756.56;10442700;28;20057;-78
2021/05/30 06:30:47;;;;;;;4.47;2.15;;;;;;;16.51;85.02;94746.59;10444667;28;20041;-78
2021/05/30 06:35:47;;;;;;;6.83;2.13;;;;;;;16.88;79.66;94747.28;10436680;28;20028;-78
2021/05/30 06:40:48;;;;;;;6.47;2.13;;;;;;;17.17;74.79;94756.81;10419139;28;20295;-77
2021/05/30 06:45:48;;;;;;;1.43;1.33;;;;;;;16.90;74.13;94761.34;10434817;28;20128;-77
2021/05/30 06:51:12;;;;;;;2.27;1.70;;;;;;;16.65;74.45;94775.56;10418039;28;20036;-76
2021/05/30 06:56:09;;;;;;;6.93;2.10;;;;;;;16.58;75.90;94765.94;10417550;28;20399;-77
2021/05/30 07:01:11;;;;;;;7.07;1.80;;;;;;;16.75;73.70;94770.66;10419101;28;20033;-76
2021/05/30 07:06:12;;;;;;;4.78;2.30;;;;;;;16.69;77.13;94771.13;10441525;28;20807;-78
2021/05/30 07:11:12;;;;;;;3.63;2.45;;;;;;;16.54;80.92;94786.66;10412406;28;20029;-76
2021/05/30 07:16:13;;;;;;;9.27;2.90;;;;;;;16.65;79.10;94783.69;10400440;28;20029;-77
2021/05/30 07:21:13;;;;;;;5.28;2.25;;;;;;;16.53;81.30;94782.31;10416511;28;20402;-77
2021/05/30 07:26:14;;;;;;;4.57;2.73;;;;;;;16.86;78.83;94783.97;10409777;28;20046;-77
2021/05/30 07:31:15;;;;;;;4.88;1.90;;;;;;;17.60;75.02;94777.84;10431921;28;20279;-77
2021/05/30 07:36:15;;;;;;;2.97;2.30;;;;;;;17.90;67.99;94771.81;10434414;28;20029;-77
2021/05/30 07:41:17;;;;;;;5.60;1.90;;;;;;;18.47;62.20;94764.66;10432844;28;20036;-77
2021/05/30 07:46:17;;;;;;;2.53;1.75;;;;;;;19.82;61.14;94772.50;10440156;28;20267;-77
2021/05/30 07:51:18;;;;;;;2.92;2.00;;;;;;;20.64;53.16;94759.13;10441910;28;20029;-78
2021/05/30 07:56:18;;;;;;;3.58;1.27;;;;;;;21.90;49.00;94756.19;10441951;28;20029;-78
2021/05/30 08:01:19;;;;;;;2.73;1.50;;;;;;;22.99;46.86;94747.88;10441113;28;20094;-77
2021/05/30 08:06:19;;;;;;;6.97;1.67;;;;;;;23.13;43.17;94749.44;10441880;28;20021;-78
2021/05/30 08:11:19;;;;;;;5.07;1.57;;;;;;;23.07;44.25;94745.34;10439110;28;20455;-78
2021/05/30 08:16:21;;;;;;;3.07;1.30;;;;;;;22.87;44.45;94743.28;10401410;28;20033;-78
2021/05/30 08:21:21;;;;;;;2.88;1.58;;;;;;;21.50;45.87;94738.53;10442542;28;20446;-78
2021/05/30 08:26:23;;;;;;;3.13;1.50;;;;;;;22.38;47.06;94734.50;10440402;28;20111;-76
2021/05/30 08:31:24;;;;;;;5.25;1.70;;;;;;;23.50;46.36;94741.72;10447038;28;20025;-77
2021/05/30 08:36:26;;;;;;;6.18;1.42;;;;;;;24.95;41.94;94729.03;10447882;28;20031;-77
2021/05/30 08:41:26;;;;;;;6.05;1.40;;;;;;;26.07;38.75;94717.81;10432741;28;20029;-77
2021/05/30 08:46:28;;;;;;;3.70;1.30;;;;;;;26.39;38.32;94725.72;10407742;28;20022;-77
2021/05/30 08:51:29;;;;;;;5.10;2.63;;;;;;;25.82;38.17;94731.22;10408173;28;20268;-78
2021/05/30 08:56:29;;;;;;;1.83;1.42;;;;;;;25.59;39.13;94740.34;10414942;28;20030;-76
2021/05/30 09:01:29;;;;;;;2.37;1.50;;;;;;;24.17;42.28;94731.84;10427262;28;20035;-78
2021/05/30 09:06:31;;;;;;;4.70;1.47;;;;;;;23.50;44.41;94735.44;10431993;28;20032;-77
2021/05/30 09:11:38;;;;;;;1.92;1.27;;;;;;;23.97;42.72;94731.00;10431866;28;20029;-77
2021/05/30 09:17:11;;;;;;;3.75;1.50;;;;;;;24.34;42.15;94734.13;10432669;28;20029;-78
2021/05/30 09:22:33;;;;;;;5.05;1.95;;;;;;;25.19;39.71;94727.09;10446845;28;20033;-78
2021/05/30 09:27:36;;;;;;;1.60;1.17;;;;;;;23.28;41.80;94725.91;10443824;28;20824;-78
2021/05/30 09:32:57;;;;;;;3.65;1.45;;;;;;;23.63;42.69;94723.19;10444896;28;20033;-77
2021/05/30 09:38:06;;;;;;;1.40;1.30;;;;;;;21.84;45.37;94720.06;10442269;28;20045;-78
2021/05/30 09:43:10;;;;;;;6.63;2.20;;;;;;;23.64;43.93;94705.59;10446118;28;20108;-78
2021/05/30 09:48:17;;;;;;;5.13;2.17;;;;;;;23.99;44.45;94702.03;10447249;28;20025;-78
2021/05/30 09:53:18;;;;;;;3.80;1.70;;;;;;;26.33;38.61;94693.34;10444732;28;20033;-74
2021/05/30 09:58:19;;;;;;;4.82;1.50;;;;;;;28.77;36.36;94679.75;10444493;28;20029;-75
2021/05/30 10:03:19;;;;;;;4.80;1.35;;;;;;;29.69;31.70;94685.72;10445872;28;20083;-75
2021/05/30 10:08:22;;;;;;;4.80;2.03;;;;;;;30.13;32.64;94662.28;10444764;28;20104;-75
2021/05/30 10:13:23;;;;;;;5.28;3.22;;;;;;;28.18;31.73;94652.31;10431941;28;20032;-72
2021/05/30 10:18:37;;;;;;;1.90;1.10;;;;;;;29.96;34.04;94640.94;10426199;28;20030;-74
2021/05/30 10:23:40;;;;;;;2.90;1.25;;;;;;;30.26;31.62;94634.88;10403929;28;20075;-74
2021/05/30 10:29:15;;;;;;;3.70;1.08;;;;;;;29.13;31.93;94635.50;10431758;28;20072;-73
2021/05/30 10:34:21;;;;;;;1.30;1.20;;;;;;;27.05;34.22;94634.22;10436261;28;20560;-73
2021/05/30 10:39:31;;;;;;;7.82;1.40;;;;;;;29.20;33.43;94634.72;10439481;28;20033;-73
2021/05/30 10:44:58;;;;;;;2.80;1.05;;;;;;;28.97;31.99;94639.47;10438181;28;20024;-73
2021/05/30 10:50:15;;;;;;;1.33;1.02;;;;;;;25.58;36.08;94634.16;10436759;28;20032;-72
2021/05/30 10:55:27;;;;;;;6.53;1.65;;;;;;;26.29;35.38;94629.13;10439976;28;20448;-77
2021/05/30 11:00:37;;;;;;;2.63;2.33;;;;;;;25.62;35.82;94623.22;10441066;28;20024;-77
2021/05/30 11:05:47;;;;;;;8.13;2.33;;;;;;;24.97;39.44;94624.97;10438864;28;20027;-77
2021/05/30 11:10:51;;;;;;;110.05;60.47;;;;;;;24.78;41.70;94625.06;10433037;28;20029;-77
2021/05/30 11:16:06;;;;;;;3.30;1.38;;;;;;;24.19;43.23;94630.66;10440717;28;20033;-77
2021/05/30 11:21:06;;;;;;;5.25;2.20;;;;;;;24.36;45.00;94632.16;10439517;28;20048;-78
2021/05/30 11:26:10;;;;;;;3.23;1.97;;;;;;;23.60;45.94;94632.59;10440762;28;20056;-77
2021/05/30 11:31:10;;;;;;;5.97;2.35;;;;;;;24.45;43.53;94623.66;10427840;28;20292;-77
2021/05/30 11:36:25;;;;;;;8.77;2.40;;;;;;;22.94;49.09;94627.56;10405472;28;20567;-76
2021/05/30 11:41:34;;;;;;;6.47;2.45;;;;;;;22.93;46.86;94625.97;10405322;28;20280;-76
2021/05/30 11:46:47;;;;;;;5.10;2.50;;;;;;;22.50;50.08;94625.69;10408894;28;20504;-77
2021/05/30 11:52:00;;;;;;;2.15;1.73;;;;;;;23.08;47.54;94634.50;10438261;28;20045;-77
2021/05/30 11:57:04;;;;;;;7.78;1.90;;;;;;;22.34;48.05;94619.41;10441071;28;20035;-78
2021/05/30 12:02:05;;;;;;;2.78;2.40;;;;;;;21.84;51.31;94625.09;10400780;28;20402;-77
2021/05/30 12:07:11;;;;;;;6.97;2.35;;;;;;;22.02;51.61;94625.59;10399899;28;20071;-78
2021/05/30 12:12:49;;;;;;;3.38;1.92;;;;;;;22.24;51.79;94628.88;10399166;28;20408;-77
2021/05/30 12:17:56;;;;;;;;;;;;;;;22.70;49.39;94629.34;10373294;28;20113;-77
2021/05/30 12:23:14;;;;;;;6.93;2.40;;;;;;;22.14;46.79;94629.41;10412864;28;19952;-77
2021/05/30 12:28:15;;;;;;;;;;;;;;;20.77;54.49;94633.56;10441438;28;20067;-77
2021/05/30 12:33:15;;;;;;;5.50;2.25;;;;;;;21.14;51.85;94634.34;10448764;28;20306;-77
2021/05/30 12:38:19;;;;;;;3.60;2.05;;;;;;;20.43;56.81;94621.88;10448583;28;20071;-78
2021/05/30 12:43:40;;;;;;;3.92;2.58;;;;;;;19.88;61.50;94627.41;10452309;28;20500;-77
2021/05/30 12:48:43;;;;;;;5.80;2.50;;;;;;;20.30;59.81;94630.06;10462286;28;20017;-78
2021/05/30 12:53:45;;;;;;;8.98;2.25;;;;;;;20.73;57.68;94621.72;10448416;28;20067;-78
2021/05/30 12:58:46;;;;;;;3.95;2.08;;;;;;;20.79;54.91;94623.06;10447798;28;20037;-78
2021/05/30 13:03:46;;;;;;;4.50;2.03;;;;;;;20.06;55.73;94619.84;10447872;28;20496;-78
2021/05/30 13:08:58;;;;;;;6.37;2.40;;;;;;;19.80;58.36;94622.81;10447917;28;20287;-78
2021/05/30 13:13:58;;;;;;;11.40;3.40;;;;;;;19.95;59.39;94619.50;10410290;28;20063;-78
2021/05/30 13:18:59;;;;;;;3.45;3.10;;;;;;;19.14;67.16;94629.72;10426405;28;20502;-78
2021/05/30 13:24:18;;;;;;;5.63;3.27;;;;;;;18.82;74.14;94633.88;10446053;28;20082;-77
2021/05/30 13:29:23;;;;;;;5.90;3.65;;;;;;;19.32;68.89;94635.06;10446926;28;20033;-77
2021/05/30 13:34:24;;;;;;;8.73;4.00;;;;;;;19.22;69.33;94636.25;10446230;28;20488;-78
2021/05/30 13:39:25;;;;;;;6.15;3.97;;;;;;;18.60;75.03;94641.97;10444669;28;20028;-78
2021/05/30 13:44:25;;;;;;;5.30;4.38;;;;;;;18.26;77.52;94643.66;10446475;28;20061;-78
2021/05/30 13:49:26;;;;;;;8.63;4.60;;;;;;;18.06;84.59;94649.81;10445959;28;20036;-78
2021/05/30 13:54:26;;;;;;;11.47;6.00;;;;;;;16.99;91.66;94666.34;10445665;28;20055;-78
2021/05/30 13:59:27;;;;;;;7.87;5.93;;;;;;;16.50;99.76;94666.31;10446579;28;20043;-78
2021/05/30 14:04:27;;;;;;;7.22;5.80;;;;;;;16.27;100.00;94676.41;10444898;28;20283;-78
2021/05/30 14:09:28;;;;;;;9.30;6.57;;;;;;;15.07;100.00;94692.97;10445395;28;20032;-77
2021/05/30 14:14:28;;;;;;;9.77;7.05;;;;;;;14.93;100.00;94694.84;10435250;28;20304;-78
2021/05/30 14:19:28;;;;;;;11.30;7.50;;;;;;;14.28;100.00;94688.47;10428383;28;20035;-77
2021/05/30 14:24:30;;;;;;;17.93;7.97;;;;;;;14.16;100.00;94691.63;10444348;28;20057;-77
2021/05/30 14:29:30;;;;;;;8.43;6.90;;;;;;;13.85;100.00;94692.16;10443878;28;20480;-77
2021/05/30 14:34:31;;;;;;;8.20;7.17;;;;;;;13.80;100.00;94693.03;10444346;28;20040;-78
2021/05/30 14:39:33;;;;;;;17.10;8.68;;;;;;;13.60;100.00;94694.13;10443076;28;20133;-78
2021/05/30 14:44:34;;;;;;;10.23;8.80;;;;;;;13.83;100.00;94700.56;10444526;28;20083;-77
2021/05/30 14:49:35;;;;;;;14.30;9.98;;;;;;;13.87;100.00;94713.47;10444135;28;20040;-78
2021/05/30 14:54:36;;;;;;;14.65;9.07;;;;;;;13.64;100.00;94724.06;10443282;28;20412;-78
2021/05/30 14:59:36;;;;;;;12.45;9.75;;;;;;;13.30;100.00;94727.75;10443894;28;20037;-77
2021/05/30 15:04:37;;;;;;;12.90;9.43;;;;;;;12.40;100.00;94728.22;10443007;28;20083;-77
2021/05/30 15:09:37;;;;;;;15.30;10.85;;;;;;;11.74;100.00;94738.44;10442693;28;20156;-77
2021/05/30 15:14:38;;;;;;;17.87;11.50;;;;;;;11.68;100.00;94742.28;10443241;28;20061;-77
2021/05/30 15:19:38;;;;;;;17.03;10.70;;;;;;;11.70;100.00;94745.47;10442069;28;20044;-77
2021/05/30 15:24:38;;;;;;;16.83;11.77;;;;;;;11.40;100.00;94755.34;10441791;28;20111;-77
2021/05/30 15:29:39;;;;;;;15.02;11.57;;;;;;;11.40;100.00;94754.53;10441668;28;20495;-77
2021/05/30 15:34:39;;;;;;;15.47;10.63;;;;;;;11.17;100.00;94753.31;10442493;28;20036;-77
2021/05/30 15:39:40;;;;;;;17.83;12.50;;;;;;;10.96;100.00;94755.28;10441513;28;20028;-77
2021/05/30 15:44:40;;;;;;;15.73;11.52;;;;;;;10.92;100.00;94758.50;10442734;28;20458;-77
2021/05/30 15:49:41;;;;;;;15.27;10.53;;;;;;;10.89;100.00;94756.38;10442482;28;20021;-83
2021/05/30 15:54:42;;;;;;;15.67;11.07;;;;;;;10.76;100.00;94754.28;10450723;28;20021;-82
2021/05/30 15:59:43;;;;;;;18.27;11.32;;;;;;;10.80;100.00;94757.22;10443935;28;20325;-77
2021/05/30 16:04:43;;;;;;;15.70;10.50;;;;;;;10.56;100.00;94760.50;10445687;28;20499;-77
2021/05/30 16:09:44;;;;;;;16.07;11.63;;;;;;;10.52;100.00;94756.75;10449808;28;20841;-77
2021/05/30 16:14:44;;;;;;;14.50;10.73;;;;;;;10.29;100.00;94760.78;10448673;28;20478;-76
2021/05/30 16:19:44;;;;;;;20.83;11.73;;;;;;;10.23;100.00;94768.06;10445289;28;20338;-76
2021/05/30 16:24:45;;;;;;;20.17;13.05;;;;;;;10.33;100.00;94767.25;10434344;28;20432;-77
2021/05/30 16:29:45;;;;;;;19.13;11.20;;;;;;;10.31;100.00;94767.50;10421284;28;20044;-77
2021/05/30 16:34:45;;;;;;;17.30;11.13;;;;;;;10.17;100.00;94759.19;10427930;28;20316;-76
2021/05/30 16:39:46;;;;;;;14.63;10.50;;;;;;;10.09;100.00;94763.22;10417463;28;20111;-77
2021/05/30 16:44:46;;;;;;;17.80;10.93;;;;;;;10.19;100.00;94762.41;10418716;28;20299;-77
2021/05/30 16:49:47;;;;;;;15.45;10.73;;;;;;;10.01;100.00;94763.75;10435698;28;20024;-77
2021/05/30 16:54:47;;;;;;;14.73;10.10;;;;;;;9.87;100.00;94758.09;10425642;28;20052;-76
2021/05/30 16:59:48;;;;;;;23.60;10.50;;;;;;;9.63;100.00;94757.00;10424499;28;20353;-77
2021/05/30 17:04:50;;;;;;;17.27;11.70;;;;;;;9.66;100.00;94761.88;10433891;28;20283;-77
2021/05/30 17:09:50;;;;;;;19.13;11.10;;;;;;;9.68;100.00;94760.50;10436631;28;20056;-76
2021/05/30 17:14:51;;;;;;;18.97;10.87;;;;;;;9.68;100.00;94757.03;10443198;28;20579;-76
2021/05/30 17:19:51;;;;;;;15.65;10.10;;;;;;;9.63;100.00;94765.88;10429406;28;20413;-76
2021/05/30 17:24:52;;;;;;;15.30;10.68;;;;;;;9.55;100.00;94761.03;10404092;28;20053;-76
2021/05/30 17:29:52;;;;;;;13.43;8.97;;;;;;;9.54;100.00;94757.56;10405326;28;20172;-76
2021/05/30 17:34:52;;;;;;;18.33;9.73;;;;;;;9.56;100.00;94751.91;10406624;28;20032;-75
2021/05/30 17:39:53;;;;;;;14.80;9.23;;;;;;;9.58;100.00;94747.88;10405080;28;20473;-76
2021/05/30 17:44:53;;;;;;;14.30;8.77;;;;;;;9.69;100.00;94753.28;10404933;28;20361;-77
2021/05/30 17:49:54;;;;;;;12.97;8.50;;;;;;;9.71;100.00;94751.13;10405037;28;20527;-75
2021/05/30 17:54:54;;;;;;;14.55;8.52;;;;;;;9.69;100.00;94753.28;10411018;28;20276;-80
2021/05/30 17:59:54;;;;;;;15.20;9.87;;;;;;;9.84;100.00;94747.13;10411394;28;20919;-81
2021/05/30 18:04:55;;;;;;;13.50;8.73;;;;;;;9.73;100.00;94744.41;10409245;28;20832;-81
2021/05/30 18:09:55;;;;;;;12.63;8.43;;;;;;;9.61;100.00;94754.59;10409592;28;20116;-81
2021/05/30 18:14:55;;;;;;;16.17;8.50;;;;;;;9.60;100.00;94747.63;10409532;28;20029;-81
2021/05/30 18:19:56;;;;;;;13.60;7.97;;;;;;;9.67;100.00;94752.72;10437928;28;20087;-83
2021/05/30 18:24:56;;;;;;;14.23;9.45;;;;;;;9.82;100.00;94760.78;10410081;28;20060;-80
2021/05/30 18:29:57;;;;;;;14.38;8.50;;;;;;;9.89;100.00;94763.22;10405578;28;20049;-81
2021/05/30 18:34:58;;;;;;;15.82;9.52;;;;;;;10.05;100.00;94775.56;10409916;28;20051;-81
2021/05/30 18:39:58;;;;;;;13.50;9.30;;;;;;;9.99;100.00;94778.50;10438343;28;20035;-80
2021/05/30 18:44:59;;;;;;;17.40;10.95;;;;;;;10.07;100.00;94776.13;10450196;28;20039;-80
2021/05/30 18:50:00;;;;;;;12.37;8.30;;;;;;;10.19;100.00;94783.09;10448203;28;20048;-80
2021/05/30 18:55:00;;;;;;;13.50;8.90;;;;;;;10.06;100.00;94779.88;10449760;28;20029;-80
2021/05/30 19:00:01;;;;;;;21.00;9.15;;;;;;;10.09;100.00;94787.38;10436917;28;20033;-79
2021/05/30 19:05:02;;;;;;;14.30;7.90;;;;;;;10.12;100.00;94786.03;10405839;28;20029;-80
2021/05/30 19:10:08;;;;;;;10.23;6.90;;;;;;;10.00;100.00;94786.28;10403680;28;20013;-76
2021/05/30 19:15:13;;;;;;;13.27;7.93;;;;;;;10.08;100.00;94790.34;10401262;28;20113;-76
2021/05/30 19:20:15;;;;;;;13.43;8.25;;;;;;;10.16;100.00;94799.72;10431163;28;20083;-76
2021/05/30 19:25:15;;;;;;;11.30;7.70;;;;;;;10.17;100.00;94802.16;10410442;28;20045;-76
2021/05/30 19:30:16;;;;;;;15.33;7.67;;;;;;;10.27;100.00;94787.94;10410310;28;20029;-76
2021/05/30 19:35:16;;;;;;;13.07;7.90;;;;;;;10.21;100.00;94794.38;10398872;28;20032;-76
2021/05/30 19:40:17;;;;;;;11.63;8.95;;;;;;;10.08;100.00;94793.81;10432685;28;20479;-76
2021/05/30 19:45:18;;;;;;;10.25;7.32;;;;;;;10.12;100.00;94786.03;10428762;28;20508;-76
2021/05/30 19:50:19;;;;;;;8.98;6.97;;;;;;;9.94;100.00;94787.38;10399883;28;20025;-76
2021/05/30 19:55:20;;;;;;;9.60;7.68;;;;;;;10.01;100.00;94790.59;10400648;28;20416;-76
2021/05/30 20:00:22;;;;;;;11.07;8.05;;;;;;;9.96;100.00;94795.16;10400203;28;20033;-76
2021/05/30 20:05:23;;;;;;;13.35;8.57;;;;;;;9.90;100.00;94789.78;10399584;28;20030;-75
2021/05/30 20:10:24;;;;;;;10.27;7.85;;;;;;;10.03;100.00;94798.38;10399861;28;20022;-76
2021/05/30 20:15:27;;;;;;;11.73;8.07;;;;;;;9.89;100.00;94790.88;10419898;28;20492;-76
2021/05/30 20:20:28;;;;;;;12.65;8.57;;;;;;;9.83;100.00;94783.06;10439574;28;20084;-76
2021/05/30 20:25:31;;;;;;;12.20;8.57;;;;;;;9.94;100.00;94789.28;10440501;28;20041;-85
2021/05/30 20:30:34;;;;;;;14.20;10.95;;;;;;;9.99;100.00;94790.06;10447176;28;20116;-82
2021/05/30 20:35:35;;;;;;;17.05;11.05;;;;;;;9.98;100.00;94788.47;10448218;28;20032;-83
2021/05/30 20:40:36;;;;;;;19.20;10.38;;;;;;;10.15;100.00;94787.41;10449022;28;20431;-83
2021/05/30 20:45:37;;;;;;;14.30;9.95;;;;;;;10.26;100.00;94789.78;10450496;28;20033;-83
2021/05/30 20:50:38;;;;;;;14.30;9.85;;;;;;;10.24;100.00;94783.91;10452661;28;20456;-82
2021/05/30 20:55:38;;;;;;;14.10;11.02;;;;;;;10.17;100.00;94788.75;10454184;28;20086;-81
2021/05/30 21:00:38;;;;;;;17.83;11.05;;;;;;;10.12;100.00;94798.66;10452617;28;20021;-81
2021/05/30 21:05:39;;;;;;;19.20;10.87;;;;;;;9.79;100.00;94790.06;10453843;28;20492;-81
2021/05/30 21:10:41;;;;;;;24.80;12.95;;;;;;;9.39;100.00;94803.91;10453623;28;20275;-81
2021/05/30 21:15:43;;;;;;;16.38;11.48;;;;;;;9.67;100.00;94795.66;10456547;28;20036;-82
2021/05/30 21:20:44;;;;;;;18.70;13.27;;;;;;;9.62;100.00;94801.81;10457259;28;20545;-84
2021/05/30 21:25:45;;;;;;;21.08;13.98;;;;;;;9.29;100.00;94789.66;10455192;28;20057;-84
2021/05/30 21:30:53;;;;;;;20.63;15.02;;;;;;;9.21;100.00;94804.41;10445204;28;20111;-83
2021/05/30 21:35:53;;;;;;;19.63;13.52;;;;;;;9.27;100.00;94814.06;10454969;28;20021;-83
2021/05/30 21:40:55;;;;;;;20.23;12.97;;;;;;;9.09;100.00;94817.22;10434092;28;20385;-83
2021/05/30 21:45:56;;;;;;;21.20;14.18;;;;;;;9.07;100.00;94812.91;10414565;28;20034;-83
2021/05/30 21:50:57;;;;;;;22.15;13.77;;;;;;;9.05;100.00;94803.53;10414177;28;20076;-85
2021/05/30 21:55:57;;;;;;;24.40;14.43;;;;;;;9.04;100.00;94816.13;10414205;28;20555;-85
2021/05/30 22:00:57;;;;;;;23.27;15.17;;;;;;;8.92;100.00;94812.84;10413146;28;20295;-82
2021/05/30 22:05:58;;;;;;;23.57;13.87;;;;;;;8.89;100.00;94810.69;10412289;28;20022;-82
2021/05/30 22:10:58;;;;;;;26.50;16.63;;;;;;;8.88;100.00;94814.44;10413917;28;20060;-83
2021/05/30 22:16:14;;;;;;;23.25;16.25;;;;;;;8.84;100.00;94819.50;10414299;28;20037;-84
2021/05/30 22:21:14;;;;;;;26.00;16.02;;;;;;;8.87;100.00;94810.13;10428052;28;20485;-83
2021/05/30 22:26:15;;;;;;;21.60;14.27;;;;;;;8.79;100.00;94810.63;10414347;28;20053;-84
2021/05/30 22:31:16;;;;;;;20.47;13.93;;;;;;;8.80;100.00;94809.56;10412944;28;21143;-83
2021/05/30 22:36:16;;;;;;;21.80;14.65;;;;;;;8.82;100.00;94810.09;10413821;28;20030;-84
2021/05/30 22:41:16;;;;;;;20.30;14.83;;;;;;;8.76;100.00;94816.50;10412374;28;20550;-84
2021/05/30 22:46:17;;;;;;;22.23;15.50;;;;;;;8.80;100.00;94807.69;10413316;28;20880;-84
2021/05/30 22:51:17;;;;;;;24.73;14.80;;;;;;;8.82;100.00;94818.97;10412033;28;20033;-83
2021/05/30 22:56:18;;;;;;;23.95;14.80;;;;;;;8.95;100.00;94812.31;10411717;28;20030;-84
2021/05/30 23:01:19;;;;;;;25.45;15.50;;;;;;;8.89;100.00;94811.50;10412728;28;20025;-83
2021/05/30 23:06:19;;;;;;;20.67;14.73;;;;;;;8.91;100.00;94805.88;10412713;28;20029;-83
2021/05/30 23:11:28;;;;;;;22.05;14.15;;;;;;;8.97;100.00;94804.84;10402484;28;20018;-83
2021/05/30 23:16:28;;;;;;;;;;;;;;;8.88;100.00;94798.34;10400721;28;20025;-83